Time;durP1;ratioP1;P1;durP2;ratioP2;P2;SDS_P1;SDS_P2;PMS_P1;PMS_P2;Temp;Humidity;BMP_temperature;BMP_pressure;BME280_temperature;BME280_humidity;BME280_pressure;Samples;Min_cycle;Max_cycle;Signal;HPM_P1;HPM_P2
2021/05/02 00:01:17;;;;;;;;;;;19.40;50.10;;;;;;4906089;29;19929;-91
2021/05/02 00:03:44;;;;;;;;;;;19.40;50.10;;;;;;4920549;29;19923;-91
2021/05/02 00:06:13;;;;;;;;;;;19.40;50.10;;;;;;4903194;29;19945;-91
2021/05/02 00:08:40;;;;;;;;;;;19.40;50.10;;;;;;4905222;29;19923;-91
2021/05/02 00:11:07;;;;;;;;;;;19.30;50.00;;;;;;4911032;29;19934;-89
2021/05/02 00:13:33;;;;;;;;;;;19.30;50.00;;;;;;4904732;29;19923;-90
2021/05/02 00:16:00;;;;;;;;;;;19.40;50.10;;;;;;4915299;29;20021;-89
2021/05/02 00:18:27;;;;;;;;;;;19.30;50.00;;;;;;4920849;29;19923;-93
2021/05/02 00:20:54;;;;;;;;;;;19.30;50.00;;;;;;4918440;29;19930;-91
2021/05/02 00:23:21;;;;;;;;;;;19.30;50.00;;;;;;4916243;29;19923;-92
2021/05/02 00:25:48;;;;;;;;;;;19.30;50.00;;;;;;4906426;29;20394;-92
2021/05/02 00:28:14;;;;;;;;;;;19.30;50.00;;;;;;4907385;29;19973;-91
2021/05/02 00:30:43;;;;;;;;;;;19.30;50.00;;;;;;4914981;29;19978;-91
2021/05/02 00:33:10;;;;;;;;;;;19.20;49.90;;;;;;4913714;29;20083;-91
2021/05/02 00:35:38;;;;;;;;;;;19.30;50.00;;;;;;4912715;29;19934;-91
2021/05/02 00:38:04;;;;;;;;;;;19.20;49.90;;;;;;4915041;29;19926;-91
2021/05/02 00:40:30;;;;;;;;;;;19.30;50.00;;;;;;4915854;29;19933;-90
2021/05/02 00:42:58;;;;;;;;;;;19.20;49.90;;;;;;4876990;29;19927;-90
2021/05/02 00:45:34;;;;;;;;;;;19.20;50.50;;;;;;4889634;29;20311;-88
2021/05/02 00:48:07;;;;;;;;;;;19.20;49.90;;;;;;4901842;29;19963;-87
2021/05/02 00:50:56;;;;;;;;;;;19.20;49.80;;;;;;4893202;29;19923;-88
2021/05/02 00:53:48;;;;;;;;;;;19.20;49.80;;;;;;4877913;29;19923;-89
2021/05/02 00:56:36;;;;;;;;;;;19.20;49.80;;;;;;4890164;29;19975;-90
2021/05/02 00:59:24;;;;;;;;;;;19.20;49.80;;;;;;4866351;29;19946;-90
2021/05/02 01:02:06;;;;;;;;;;;19.20;49.80;;;;;;4900269;29;20634;-90
2021/05/02 01:05:18;;;;;;;;;;;19.20;49.80;;;;;;4881064;29;19935;-89
2021/05/02 01:07:58;;;;;;;;;;;19.10;49.70;;;;;;4867255;29;19951;-91
2021/05/02 01:10:42;;;;;;;;;;;19.10;49.70;;;;;;4901692;29;19983;-91
2021/05/02 01:13:13;;;;;;;;;;;19.10;49.80;;;;;;4917697;29;19923;-92
2021/05/02 01:15:43;;;;;;;;;;;19.10;49.70;;;;;;4910859;29;19923;-92
2021/05/02 01:18:19;;;;;;;;;;;19.10;49.70;;;;;;4903617;29;19951;-92
2021/05/02 01:20:45;;;;;;;;;;;19.10;49.70;;;;;;4911253;29;19929;-93
2021/05/02 01:23:18;;;;;;;;;;;19.10;49.80;;;;;;4912723;29;19923;-92
2021/05/02 01:25:56;;;;;;;;;;;19.00;49.60;;;;;;4914305;29;19930;-92
2021/05/02 01:28:25;;;;;;;;;;;19.10;49.70;;;;;;4904962;29;20026;-92
2021/05/02 01:30:56;;;;;;;;;;;19.00;49.60;;;;;;4910460;29;20026;-92
2021/05/02 01:33:26;;;;;;;;;;;19.00;49.60;;;;;;4905131;29;19923;-92
2021/05/02 01:35:57;;;;;;;;;;;19.10;49.70;;;;;;4915058;29;19923;-93
2021/05/02 01:38:28;;;;;;;;;;;19.00;49.70;;;;;;4915184;29;19930;-92
2021/05/02 01:40:56;;;;;;;;;;;19.00;49.60;;;;;;4914685;29;19927;-92
2021/05/02 01:43:24;;;;;;;;;;;19.00;49.70;;;;;;4912508;29;20252;-93
2021/05/02 01:45:51;;;;;;;;;;;19.00;49.70;;;;;;4912949;29;20336;-93
2021/05/02 01:48:18;;;;;;;;;;;19.00;49.70;;;;;;4914021;29;20273;-93
2021/05/02 01:50:53;;;;;;;;;;;19.00;49.60;;;;;;4914784;29;20021;-94
2021/05/02 01:53:24;;;;;;;;;;;19.00;49.50;;;;;;4910643;29;19958;-91
2021/05/02 01:55:54;;;;;;;;;;;19.00;49.50;;;;;;4904074;29;20327;-92
2021/05/02 01:58:21;;;;;;;;;;;19.00;49.50;;;;;;4915913;29;20421;-91
2021/05/02 02:01:00;;;;;;;;;;;19.00;49.50;;;;;;4915184;29;19923;-90
2021/05/02 02:03:30;;;;;;;;;;;19.00;49.60;;;;;;4896777;29;19923;-94
2021/05/02 02:06:04;;;;;;;;;;;18.90;49.60;;;;;;4918718;29;20013;-92
2021/05/02 02:08:32;;;;;;;;;;;18.90;49.50;;;;;;4917590;29;19963;-92
2021/05/02 02:10:59;;;;;;;;;;;18.90;49.60;;;;;;4918208;29;19927;-93
2021/05/02 02:13:25;;;;;;;;;;;18.90;49.50;;;;;;4915320;29;19923;-93
2021/05/02 02:15:53;;;;;;;;;;;18.90;49.60;;;;;;4917703;29;19950;-91
2021/05/02 02:18:19;;;;;;;;;;;18.90;49.60;;;;;;4917424;29;19930;-93
2021/05/02 02:20:49;;;;;;;;;;;18.90;49.60;;;;;;4906510;29;19923;-90
2021/05/02 02:23:17;;;;;;;;;;;18.90;49.60;;;;;;4914374;29;20009;-92
2021/05/02 02:25:45;;;;;;;;;;;18.90;49.60;;;;;;4911447;29;19973;-92
2021/05/02 02:28:13;;;;;;;;;;;18.90;49.60;;;;;;4909835;29;19948;-92
2021/05/02 02:30:40;;;;;;;;;;;18.90;49.60;;;;;;4911367;29;19934;-93
2021/05/02 02:33:07;;;;;;;;;;;18.90;49.60;;;;;;4906231;29;19927;-93
2021/05/02 02:35:41;;;;;;;;;;;18.90;49.60;;;;;;4914112;29;19931;-93
2021/05/02 02:38:09;;;;;;;;;;;18.80;49.50;;;;;;4913989;29;19958;-91
2021/05/02 02:40:37;;;;;;;;;;;18.90;49.60;;;;;;4911762;29;20483;-91
2021/05/02 02:43:04;;;;;;;;;;;18.80;49.50;;;;;;4909197;29;19930;-91
2021/05/02 02:45:34;;;;;;;;;;;18.80;49.50;;;;;;4912850;29;19911;-91
2021/05/02 02:48:02;;;;;;;;;;;18.80;49.60;;;;;;4913421;29;19934;-91
2021/05/02 02:50:29;;;;;;;;;;;18.80;49.60;;;;;;4910100;29;19927;-91
2021/05/02 02:52:56;;;;;;;;;;;18.80;49.50;;;;;;4916158;29;19931;-90
2021/05/02 02:55:23;;;;;;;;;;;18.80;49.60;;;;;;4895651;29;19931;-91
2021/05/02 02:57:52;;;;;;;;;;;18.70;49.50;;;;;;4912339;29;21626;-91
2021/05/02 03:00:22;;;;;;;;;;;18.80;49.50;;;;;;4909096;29;20292;-91
2021/05/02 03:03:00;;;;;;;;;;;18.80;49.60;;;;;;4918355;28;20051;-92
2021/05/02 03:05:27;;;;;;;;;;;18.80;49.50;;;;;;4909107;29;20389;-92
2021/05/02 03:07:57;;;;;;;;;;;18.80;49.50;;;;;;4911509;29;19927;-92
2021/05/02 03:10:24;;;;;;;;;;;18.80;49.50;;;;;;4914441;29;19930;-92
2021/05/02 03:12:50;;;;;;;;;;;18.70;49.50;;;;;;4912842;29;19922;-93
2021/05/02 03:15:22;;;;;;;;;;;18.70;49.40;;;;;;4896522;29;20148;-94
2021/05/02 03:17:54;;;;;;;;;;;18.70;49.50;;;;;;4914408;29;19923;-93
2021/05/02 03:20:21;;;;;;;;;;;18.70;49.40;;;;;;4908913;29;20261;-91
2021/05/02 03:22:55;;;;;;;;;;;18.70;49.50;;;;;;4908613;29;19938;-87
2021/05/02 03:25:35;;;;;;;;;;;18.70;49.50;;;;;;4912276;29;20319;-94
2021/05/02 03:28:03;;;;;;;;;;;18.70;49.50;;;;;;4898048;29;19927;-92
2021/05/02 03:30:29;;;;;;;;;;;18.70;49.50;;;;;;4907103;29;19923;-92
2021/05/02 03:32:56;;;;;;;;;;;18.60;49.40;;;;;;4914372;29;20359;-93
2021/05/02 03:35:23;;;;;;;;;;;18.60;49.40;;;;;;4907915;29;19923;-93
2021/05/02 03:38:08;;;;;;;;;;;18.70;49.50;;;;;;4911678;29;20811;-93
2021/05/02 03:40:35;;;;;;;;;;;18.60;49.50;;;;;;4900321;29;20448;-94
2021/05/02 03:43:02;;;;;;;;;;;18.60;49.40;;;;;;4911358;29;19923;-92
2021/05/02 03:45:28;;;;;;;;;;;18.60;49.50;;;;;;4913950;29;20320;-92
2021/05/02 03:47:54;;;;;;;;;;;18.60;49.40;;;;;;4915429;29;19911;-91
2021/05/02 03:50:20;;;;;;;;;;;18.60;49.50;;;;;;4913278;29;19927;-91
2021/05/02 03:52:46;;;;;;;;;;;18.60;49.40;;;;;;4909291;29;19928;-91
2021/05/02 03:55:14;;;;;;;;;;;18.60;49.40;;;;;;4909417;29;20172;-92
2021/05/02 03:57:56;;;;;;;;;;;18.60;49.40;;;;;;4915376;29;20167;-92
2021/05/02 04:00:22;;;;;;;;;;;18.60;49.40;;;;;;4915065;29;19930;-92
2021/05/02 04:02:52;;;;;;;;;;;18.60;49.40;;;;;;4917941;29;20215;-91
2021/05/02 04:05:19;;;;;;;;;;;18.50;49.30;;;;;;4898716;29;22352;-91
2021/05/02 04:07:45;;;;;;;;;;;18.50;49.40;;;;;;4906894;29;20324;-90
2021/05/02 04:10:22;;;;;;;;;;;18.60;49.40;;;;;;4894398;29;19931;-91
2021/05/02 04:13:16;;;;;;;;;;;18.60;49.40;;;;;;4854560;29;19911;-92
2021/05/02 04:21:26;;;;;;;;;;;18.50;49.30;;;;;;1763929;23;20197;-89
2021/05/02 04:23:56;;;;;;;;;;;18.50;49.30;;;;;;1828025;23;20100;-92
2021/05/02 04:26:33;;;;;;;;;;;18.50;49.30;;;;;;2349046;23;20202;-90
2021/05/02 04:38:40;;;;;;;;;;;18.50;49.20;;;;;;4914953;23;19934;-85
2021/05/02 04:41:13;;;;;;;;;;;18.50;49.20;;;;;;2796518;23;20106;-89
2021/05/02 04:43:46;;;;;;;;;;;18.50;49.10;;;;;;1935036;23;19928;31
2021/05/02 04:46:27;;;;;;;;;;;18.50;49.70;;;;;;2473106;23;19917;-92
2021/05/02 04:49:05;;;;;;;;;;;18.50;49.10;;;;;;2335496;23;21012;-92
2021/05/02 04:51:44;;;;;;;;;;;18.50;49.10;;;;;;2311677;23;19945;31
2021/05/02 04:54:20;;;;;;;;;;;18.50;49.00;;;;;;2761218;23;19921;31
2021/05/02 04:56:57;;;;;;;;;;;18.40;49.00;;;;;;2850800;23;21811;-92
2021/05/02 04:59:34;;;;;;;;;;;18.40;49.00;;;;;;2443249;23;19921;-92
2021/05/02 05:07:56;;;;;;;;;;;18.40;49.00;;;;;;2850289;23;20003;-89
2021/05/02 05:10:23;;;;;;;;;;;18.50;49.00;;;;;;2413114;23;20318;-88
2021/05/02 05:12:49;;;;;;;;;;;18.40;49.00;;;;;;4908509;29;20000;-91
2021/05/02 05:15:16;;;;;;;;;;;18.40;48.90;;;;;;4908040;29;20406;-92
2021/05/02 05:17:42;;;;;;;;;;;18.40;48.90;;;;;;4923666;29;19931;-91
2021/05/02 05:20:09;;;;;;;;;;;18.40;48.80;;;;;;4912726;29;19922;-91
2021/05/02 05:22:35;;;;;;;;;;;18.40;48.80;;;;;;4908529;29;20151;-92
2021/05/02 05:25:01;;;;;;;;;;;18.40;48.90;;;;;;4907887;29;19923;-93
2021/05/02 05:27:29;;;;;;;;;;;18.40;48.90;;;;;;4911063;29;19928;-93
2021/05/02 05:29:55;;;;;;;;;;;18.40;48.80;;;;;;4904307;29;19930;-92
2021/05/02 05:32:21;;;;;;;;;;;18.40;48.80;;;;;;4925635;29;19930;-93
2021/05/02 05:34:47;;;;;;;;;;;18.40;48.80;;;;;;4926409;29;21008;-92
2021/05/02 05:37:15;;;;;;;;;;;18.40;48.80;;;;;;4941194;29;19923;-93
2021/05/02 05:39:41;;;;;;;;;;;18.40;48.80;;;;;;4915711;29;19934;-91
2021/05/02 05:42:07;;;;;;;;;;;18.40;48.70;;;;;;4914136;29;20233;-91
2021/05/02 05:44:34;;;;;;;;;;;18.40;48.80;;;;;;4913832;29;20262;-91
2021/05/02 05:47:03;;;;;;;;;;;18.40;49.30;;;;;;4899819;29;20557;-91
2021/05/02 05:49:29;;;;;;;;;;;18.40;48.60;;;;;;4912319;29;19974;-92
2021/05/02 05:51:56;;;;;;;;;;;18.40;48.60;;;;;;4916053;29;19923;-92
2021/05/02 05:54:25;;;;;;;;;;;18.40;48.70;;;;;;4913403;29;19930;-93
2021/05/02 05:56:51;;;;;;;;;;;18.40;48.60;;;;;;4918265;29;19927;-88
2021/05/02 05:59:17;;;;;;;;;;;18.40;48.60;;;;;;4926555;29;19923;-93
2021/05/02 06:01:44;;;;;;;;;;;18.40;48.70;;;;;;4932415;29;19930;-88
2021/05/02 06:04:18;;;;;;;;;;;18.50;49.00;;;;;;4919564;29;19934;-86
2021/05/02 06:06:44;;;;;;;;;;;18.50;49.00;;;;;;4928529;29;19931;-84
2021/05/02 06:09:10;;;;;;;;;;;18.50;49.00;;;;;;4931795;29;19933;-83
2021/05/02 06:11:37;;;;;;;;;;;18.50;48.90;;;;;;4923766;29;19919;-89
2021/05/02 06:14:09;;;;;;;;;;;18.50;48.90;;;;;;4924183;29;20321;-89
2021/05/02 06:16:35;;;;;;;;;;;18.50;48.90;;;;;;4925085;29;19929;-89
2021/05/02 06:19:01;;;;;;;;;;;18.40;48.80;;;;;;4921510;29;20014;-88
2021/05/02 06:21:27;;;;;;;;;;;18.40;48.80;;;;;;4934989;29;20005;-89
2021/05/02 06:23:55;;;;;;;;;;;18.50;48.80;;;;;;4921995;29;20375;-88
2021/05/02 06:26:21;;;;;;;;;;;18.40;48.80;;;;;;4925332;29;20364;-88
2021/05/02 06:28:49;;;;;;;;;;;18.40;48.70;;;;;;4932202;29;19951;-89
2021/05/02 06:31:19;;;;;;;;;;;18.40;48.70;;;;;;4934616;29;20330;-88
2021/05/02 06:33:46;;;;;;;;;;;18.40;48.70;;;;;;4933724;29;19918;-88
2021/05/02 06:36:18;;;;;;;;;;;18.40;48.70;;;;;;4931428;29;19926;-88
2021/05/02 06:38:44;;;;;;;;;;;18.40;48.60;;;;;;4940313;29;20339;-88
2021/05/02 06:41:10;;;;;;;;;;;18.40;48.60;;;;;;4929055;29;19937;-87
2021/05/02 06:43:36;;;;;;;;;;;18.40;48.60;;;;;;4923877;29;19923;-89
2021/05/02 06:46:03;;;;;;;;;;;18.40;48.50;;;;;;4931328;29;20291;-88
2021/05/02 06:48:29;;;;;;;;;;;18.40;48.50;;;;;;4930788;29;20031;-87
2021/05/02 06:50:57;;;;;;;;;;;18.40;48.50;;;;;;4934560;29;19927;-87
2021/05/02 06:53:24;;;;;;;;;;;18.40;48.40;;;;;;4932363;29;19923;-87
2021/05/02 06:55:50;;;;;;;;;;;18.40;48.50;;;;;;4945688;29;19966;-88
2021/05/02 06:58:16;;;;;;;;;;;18.40;48.40;;;;;;4920411;29;19927;-88
2021/05/02 07:00:43;;;;;;;;;;;18.40;48.40;;;;;;4930172;29;19934;-89
2021/05/02 07:03:15;;;;;;;;;;;18.40;48.40;;;;;;4925763;29;19934;-91
2021/05/02 07:05:42;;;;;;;;;;;18.40;48.30;;;;;;4932797;29;19942;-90
2021/05/02 07:08:08;;;;;;;;;;;18.40;48.30;;;;;;4931205;29;20248;-91
2021/05/02 07:10:34;;;;;;;;;;;18.40;48.30;;;;;;4931582;29;20195;-89
2021/05/02 07:13:01;;;;;;;;;;;18.50;48.30;;;;;;4929469;29;19923;-87
2021/05/02 07:15:27;;;;;;;;;;;18.50;48.20;;;;;;4933660;28;19923;-89
2021/05/02 07:17:57;;;;;;;;;;;18.40;48.10;;;;;;4914538;29;19955;-90
2021/05/02 07:20:23;;;;;;;;;;;18.40;48.10;;;;;;4930196;29;20135;-96
2021/05/02 07:22:54;;;;;;;;;;;18.40;48.20;;;;;;4932548;29;20284;-88
2021/05/02 07:25:23;;;;;;;;;;;18.50;47.40;;;;;;4918776;29;19933;-90
2021/05/02 07:27:50;;;;;;;;;;;18.40;45.90;;;;;;4910043;29;19934;-85
2021/05/02 07:30:17;;;;;;;;;;;18.30;45.30;;;;;;4920834;29;19939;-90
2021/05/02 07:32:48;;;;;;;;;;;18.20;45.20;;;;;;4926382;29;20398;-93
2021/05/02 07:35:15;;;;;;;;;;;18.20;45.00;;;;;;4936263;29;19994;-86
2021/05/02 07:37:41;;;;;;;;;;;18.20;44.90;;;;;;4928749;28;20178;-87
2021/05/02 07:40:08;;;;;;;;;;;18.10;44.30;;;;;;4914959;28;19934;-88
2021/05/02 07:42:34;;;;;;;;;;;18.30;45.50;;;;;;4932387;29;19923;-87
2021/05/02 07:45:04;;;;;;;;;;;18.40;44.90;;;;;;4932379;29;19927;-93
2021/05/02 07:47:32;;;;;;;;;;;18.30;44.10;;;;;;4930989;29;19910;-94
2021/05/02 07:49:59;;;;;;;;;;;18.40;44.00;;;;;;4925069;29;19974;-95
2021/05/02 07:52:47;;;;;;;;;;;18.30;42.90;;;;;;4935726;29;19961;-94
2021/05/02 07:55:46;;;;;;;;;;;18.20;43.90;;;;;;4928469;29;20136;-91
2021/05/02 07:58:12;;;;;;;;;;;18.40;43.70;;;;;;4932390;29;19929;-95
2021/05/02 08:00:38;;;;;;;;;;;18.30;42.80;;;;;;4931352;29;19931;-93
2021/05/02 08:03:05;;;;;;;;;;;18.30;43.40;;;;;;4927995;29;19941;-89
2021/05/02 08:05:33;;;;;;;;;;;18.30;43.60;;;;;;4935913;29;19961;-92
2021/05/02 08:31:33;;;;;;;;;;;18.30;40.30;;;;;;4854231;29;19947;-92
2021/05/02 08:34:15;;;;;;;;;;;17.80;39.90;;;;;;4840367;29;19964;-91
2021/05/02 08:36:41;;;;;;;;;;;18.10;42.30;;;;;;4844142;29;19928;-93
2021/05/02 08:39:07;;;;;;;;;;;18.30;42.00;;;;;;4827665;29;19931;-90
2021/05/02 08:41:34;;;;;;;;;;;18.40;42.40;;;;;;4850234;29;20390;-89
2021/05/02 08:44:02;;;;;;;;;;;18.60;42.60;;;;;;4838728;29;20507;-87
2021/05/02 08:46:31;;;;;;;;;;;18.60;42.80;;;;;;4857062;29;19924;-87
2021/05/02 08:48:57;;;;;;;;;;;18.70;43.00;;;;;;4847795;29;19919;-88
2021/05/02 08:51:24;;;;;;;;;;;18.70;43.10;;;;;;4841800;29;19939;-87
2021/05/02 08:53:50;;;;;;;;;;;18.70;43.10;;;;;;4835739;29;20544;-87
2021/05/02 08:56:17;;;;;;;;;;;18.70;43.30;;;;;;4243248;23;20184;-90
2021/05/02 09:01:43;;;;;;;;;;;18.80;43.50;;;;;;3090566;23;20104;-88
2021/05/02 09:04:15;;;;;;;;;;;18.80;43.60;;;;;;3399638;23;19924;31
2021/05/02 09:06:41;;;;;;;;;;;18.80;43.70;;;;;;2744694;23;19924;-89
2021/05/02 09:09:18;;;;;;;;;;;18.80;43.70;;;;;;3920960;23;19934;-89
2021/05/02 10:12:15;;;;;;;;;;;18.90;43.50;;;;;;4540414;23;19948;31
2021/05/02 10:14:53;;;;;;;;;;;18.90;43.60;;;;;;3000779;23;19929;-88
2021/05/02 10:17:24;;;;;;;;;;;18.90;43.70;;;;;;2872133;23;19930;-92
2021/05/02 10:23:27;;;;;;;;;;;19.00;43.80;;;;;;1266736;23;20237;-88
2021/05/02 10:25:57;;;;;;;;;;;18.90;43.80;;;;;;3131526;23;20258;31
2021/05/02 10:28:28;;;;;;;;;;;19.00;43.80;;;;;;2322354;23;20214;-88
2021/05/02 10:31:05;;;;;;;;;;;19.00;43.80;;;;;;2147468;23;20120;-87
2021/05/02 10:33:44;;;;;;;;;;;19.00;43.90;;;;;;2454677;23;20150;-86
2021/05/02 10:36:23;;;;;;;;;;;19.00;43.80;;;;;;2845038;23;19935;31
2021/05/02 10:38:57;;;;;;;;;;;19.00;43.80;;;;;;2455367;23;19961;31
2021/05/02 10:41:24;;;;;;;;;;;19.00;43.80;;;;;;2309405;23;20852;-89
2021/05/02 10:43:54;;;;;;;;;;;19.00;43.80;;;;;;1841448;23;19909;31
2021/05/02 10:46:48;;;;;;;;;;;19.00;43.80;;;;;;1130659;23;20823;-88
2021/05/02 10:55:46;;;;;;;;;;;19.00;43.80;;;;;;2627506;23;19920;-92
2021/05/02 10:58:20;;;;;;;;;;;19.00;43.70;;;;;;4159382;23;20065;-86
2021/05/02 11:01:03;;;;;;;;;;;18.90;43.60;;;;;;4969302;28;20017;-87
2021/05/02 11:03:35;;;;;;;;;;;19.00;43.60;;;;;;4954277;28;21698;-90
2021/05/02 11:06:02;;;;;;;;;;;19.00;43.80;;;;;;4972219;28;19981;-89
2021/05/02 11:08:47;;;;;;;;;;;19.00;43.90;;;;;;4964606;28;19929;-85
2021/05/02 11:11:32;;;;;;;;;;;19.10;43.90;;;;;;4968009;28;19926;-85
2021/05/02 11:14:13;;;;;;;;;;;19.00;44.00;;;;;;4970372;28;21745;-84
2021/05/02 11:16:43;;;;;;;;;;;19.00;44.10;;;;;;4951381;28;20414;-83
2021/05/02 11:19:34;;;;;;;;;;;19.10;44.30;;;;;;4964383;28;20462;-83
2021/05/02 11:22:06;;;;;;;;;;;19.10;44.30;;;;;;4938718;28;20181;-82
2021/05/02 11:24:39;;;;;;;;;;;19.10;44.20;;;;;;4950927;28;19925;-84
2021/05/02 11:27:39;;;;;;;;;;;19.10;44.20;;;;;;4950275;28;19923;-81
2021/05/02 11:30:07;;;;;;;;;;;19.10;44.20;;;;;;4944096;28;19930;-88
2021/05/02 11:32:34;;;;;;;;;;;19.20;44.20;;;;;;4967705;28;20302;-85
2021/05/02 11:35:05;;;;;;;;;;;19.20;44.30;;;;;;4950460;28;19982;-85
2021/05/02 11:37:45;;;;;;;;;;;19.20;44.40;;;;;;4953162;28;20350;-86
2021/05/02 11:40:30;;;;;;;;;;;19.20;44.40;;;;;;4961767;28;20445;-83
2021/05/02 11:42:57;;;;;;;;;;;19.20;44.50;;;;;;4945218;28;19922;-82
2021/05/02 11:45:24;;;;;;;;;;;19.30;45.40;;;;;;4953632;28;19922;-83
2021/05/02 11:47:51;;;;;;;;;;;19.30;45.30;;;;;;4963784;28;20534;-82
2021/05/02 11:50:18;;;;;;;;;;;19.30;45.40;;;;;;4949874;28;19922;-87
2021/05/02 11:52:56;;;;;;;;;;;19.40;46.20;;;;;;4969103;28;19929;-85
2021/05/02 11:55:26;;;;;;;;;;;19.60;46.90;;;;;;4963603;28;21179;-85
2021/05/02 11:57:52;;;;;;;;;;;19.60;46.60;;;;;;4971239;28;19930;-92
2021/05/02 12:00:35;;;;;;;;;;;19.60;47.20;;;;;;4971428;28;19922;-88
2021/05/02 12:03:02;;;;;;;;;;;19.60;46.80;;;;;;4940874;28;20471;-84
2021/05/02 12:05:28;;;;;;;;;;;19.40;46.50;;;;;;4951612;28;19917;-83
2021/05/02 12:08:07;;;;;;;;;;;19.30;45.50;;;;;;4949674;28;19923;-81
2021/05/02 12:10:33;;;;;;;;;;;19.20;45.30;;;;;;4940746;28;20299;-82
2021/05/02 12:12:59;;;;;;;;;;;19.30;45.30;;;;;;4946895;28;20379;-82
2021/05/02 12:15:26;;;;;;;;;;;19.30;44.40;;;;;;4949336;28;20067;-87
2021/05/02 12:17:52;;;;;;;;;;;19.30;43.40;;;;;;4960068;28;19938;-83
2021/05/02 12:20:22;;;;;;;;;;;19.30;42.60;;;;;;4947957;28;20405;-84
2021/05/02 12:22:49;;;;;;;;;;;19.30;42.00;;;;;;4965272;28;19922;-87
2021/05/02 12:25:18;;;;;;;;;;;19.50;42.40;;;;;;4945809;28;20405;-84
2021/05/02 12:28:13;;;;;;;;;;;19.50;42.30;;;;;;4948784;28;19937;-85
2021/05/02 12:30:40;;;;;;;;;;;19.60;41.70;;;;;;4918237;28;20369;-83
2021/05/02 12:33:06;;;;;;;;;;;19.60;41.00;;;;;;4951084;28;19922;-85
2021/05/02 12:35:37;;;;;;;;;;;19.60;41.40;;;;;;4950140;28;19930;-88
2021/05/02 12:38:22;;;;;;;;;;;19.70;41.20;;;;;;4968805;28;20358;-86
2021/05/02 12:40:49;;;;;;;;;;;19.60;40.00;;;;;;4960501;28;19923;-88
2021/05/02 12:43:46;;;;;;;;;;;19.40;40.00;;;;;;4949513;28;19930;-88
2021/05/02 12:46:32;;;;;;;;;;;19.30;40.60;;;;;;4950238;28;19931;-88
2021/05/02 12:49:09;;;;;;;;;;;19.30;40.50;;;;;;4959790;28;20020;-91
2021/05/02 12:51:35;;;;;;;;;;;19.20;39.80;;;;;;4963329;28;20329;-85
2021/05/02 12:54:05;;;;;;;;;;;19.10;40.70;;;;;;4937726;28;19922;-91
2021/05/02 12:56:31;;;;;;;;;;;19.10;40.60;;;;;;4950135;28;19922;-91
2021/05/02 12:59:01;;;;;;;;;;;19.30;40.90;;;;;;4950468;28;20279;-94
2021/05/02 13:01:29;;;;;;;;;;;19.40;40.80;;;;;;4952958;28;19933;-92
2021/05/02 13:03:59;;;;;;;;;;;19.50;41.50;;;;;;4951166;28;19922;-90
2021/05/02 13:06:26;;;;;;;;;;;19.50;41.10;;;;;;4951113;28;19933;-90
2021/05/02 13:09:02;;;;;;;;;;;19.50;41.40;;;;;;4947682;28;20311;-92
2021/05/02 13:11:37;;;;;;;;;;;19.50;41.10;;;;;;4952738;28;20170;-91
2021/05/02 13:14:21;;;;;;;;;;;19.50;41.20;;;;;;4945782;28;20025;-92
2021/05/02 13:16:56;;;;;;;;;;;19.50;41.10;;;;;;4947128;28;19926;-91
2021/05/02 13:19:29;;;;;;;;;;;19.60;41.50;;;;;;4950096;28;19922;-89
2021/05/02 13:22:16;;;;;;;;;;;19.50;40.30;;;;;;4952684;28;20075;-89
2021/05/02 13:25:06;;;;;;;;;;;19.40;40.00;;;;;;4954214;28;19926;-89
2021/05/02 13:27:38;;;;;;;;;;;19.40;40.30;;;;;;4944332;28;20428;-88
2021/05/02 13:30:06;;;;;;;;;;;19.40;41.20;;;;;;4960000;28;20359;-89
2021/05/02 13:32:54;;;;;;;;;;;19.40;40.40;;;;;;4930930;28;19930;-88
2021/05/02 13:35:29;;;;;;;;;;;19.30;40.00;;;;;;4943044;28;19926;-87
2021/05/02 13:37:56;;;;;;;;;;;19.40;40.60;;;;;;4930240;28;19926;-88
2021/05/02 13:40:24;;;;;;;;;;;19.40;39.80;;;;;;4962891;28;19998;-86
2021/05/02 13:42:51;;;;;;;;;;;19.30;39.70;;;;;;4959276;28;19930;-89
2021/05/02 13:45:23;;;;;;;;;;;19.30;39.70;;;;;;4948929;28;19949;-86
2021/05/02 13:47:51;;;;;;;;;;;19.40;40.60;;;;;;4931913;29;20482;-86
2021/05/02 13:50:18;;;;;;;;;;;19.30;39.40;;;;;;4962991;28;19930;-84
2021/05/02 13:52:47;;;;;;;;;;;19.20;37.60;;;;;;4929520;28;19926;-87
2021/05/02 13:55:19;;;;;;;;;;;19.20;38.00;;;;;;4942848;28;20353;-87
2021/05/02 13:57:50;;;;;;;;;;;19.20;37.90;;;;;;4955128;28;20210;-86
2021/05/02 14:00:20;;;;;;;;;;;19.30;41.40;;;;;;4946550;28;20372;-85
2021/05/02 14:02:47;;;;;;;;;;;19.40;41.30;;;;;;4948625;28;20219;-85
2021/05/02 14:05:14;;;;;;;;;;;19.40;40.20;;;;;;4947316;28;20327;-86
2021/05/02 14:07:42;;;;;;;;;;;19.40;40.90;;;;;;4965493;28;20013;-86
2021/05/02 14:10:09;;;;;;;;;;;19.30;40.10;;;;;;4956709;28;19922;-86
2021/05/02 14:12:36;;;;;;;;;;;19.20;39.60;;;;;;4949901;28;20267;-87
2021/05/02 14:15:02;;;;;;;;;;;19.10;40.30;;;;;;4945999;28;19922;-85
2021/05/02 14:17:29;;;;;;;;;;;19.10;39.80;;;;;;4951987;28;19922;-86
2021/05/02 14:19:55;;;;;;;;;;;19.00;39.80;;;;;;4952193;28;20017;-86
2021/05/02 14:22:21;;;;;;;;;;;18.90;40.10;;;;;;4970562;28;19926;-85
2021/05/02 14:24:48;;;;;;;;;;;18.90;39.90;;;;;;4954795;28;19929;-86
2021/05/02 14:27:14;;;;;;;;;;;18.90;40.40;;;;;;4968695;28;19917;-86
2021/05/02 14:29:41;;;;;;;;;;;19.00;40.10;;;;;;4968315;28;19926;-86
2021/05/02 14:32:12;;;;;;;;;;;19.00;40.00;;;;;;4969921;28;19926;-87
2021/05/02 14:34:39;;;;;;;;;;;19.00;40.80;;;;;;4952478;28;19966;-86
2021/05/02 14:37:06;;;;;;;;;;;19.00;40.00;;;;;;4968676;28;20382;-86
2021/05/02 14:39:33;;;;;;;;;;;18.90;39.10;;;;;;4952829;28;19922;-86
2021/05/02 14:42:00;;;;;;;;;;;18.90;40.80;;;;;;4956648;28;19926;-86
2021/05/02 14:44:28;;;;;;;;;;;18.90;39.60;;;;;;4938721;28;19925;-87
2021/05/02 14:46:54;;;;;;;;;;;18.90;39.50;;;;;;4945455;28;19938;-85
2021/05/02 14:49:23;;;;;;;;;;;18.90;39.30;;;;;;4944559;28;19930;-87
2021/05/02 14:52:05;;;;;;;;;;;18.80;40.20;;;;;;4903509;28;19985;-86
2021/05/02 14:54:34;;;;;;;;;;;18.90;39.60;;;;;;4953681;28;19982;-86
2021/05/02 14:57:00;;;;;;;;;;;18.90;39.50;;;;;;4957892;28;19927;-85
2021/05/02 14:59:29;;;;;;;;;;;18.80;39.70;;;;;;4948864;28;19922;-86
2021/05/02 15:01:55;;;;;;;;;;;18.80;39.30;;;;;;4952302;28;19930;-86
2021/05/02 15:04:24;;;;;;;;;;;18.80;39.20;;;;;;4947952;28;19933;-86
2021/05/02 15:06:50;;;;;;;;;;;18.70;39.90;;;;;;4946123;28;19927;-86
2021/05/02 15:09:16;;;;;;;;;;;18.80;40.10;;;;;;4950554;28;19926;-85
2021/05/02 15:11:43;;;;;;;;;;;18.80;40.10;;;;;;4958987;28;20494;-86
2021/05/02 15:14:09;;;;;;;;;;;18.70;39.30;;;;;;4952356;28;19926;-86
2021/05/02 15:16:36;;;;;;;;;;;18.60;39.50;;;;;;4967614;28;19958;-83
2021/05/02 15:19:03;;;;;;;;;;;18.50;39.10;;;;;;4956347;28;19925;-87
2021/05/02 15:21:29;;;;;;;;;;;18.40;39.00;;;;;;4954303;28;19930;-85
2021/05/02 15:23:56;;;;;;;;;;;18.40;38.80;;;;;;4935297;28;20369;-86
2021/05/02 15:26:23;;;;;;;;;;;18.30;38.70;;;;;;4950668;28;19923;-86
2021/05/02 15:29:08;;;;;;;;;;;18.40;38.70;;;;;;4940874;28;21007;-86
2021/05/02 15:31:34;;;;;;;;;;;18.40;37.90;;;;;;4953204;28;19922;-86
2021/05/02 15:34:03;;;;;;;;;;;18.40;38.50;;;;;;4949612;28;19932;-86
2021/05/02 15:36:30;;;;;;;;;;;18.40;38.80;;;;;;4943714;28;20375;-89
2021/05/02 15:38:56;;;;;;;;;;;18.50;37.70;;;;;;4949733;28;19922;-86
2021/05/02 15:41:23;;;;;;;;;;;18.40;37.40;;;;;;4952849;28;19922;-86
2021/05/02 15:43:52;;;;;;;;;;;18.30;37.50;;;;;;4938857;28;20311;-88
2021/05/02 15:46:24;;;;;;;;;;;18.30;37.80;;;;;;4947796;28;20401;-87
2021/05/02 15:48:50;;;;;;;;;;;18.40;38.60;;;;;;4942138;28;19922;-86
2021/05/02 15:51:18;;;;;;;;;;;18.40;38.50;;;;;;4963979;28;19941;-87
2021/05/02 15:53:44;;;;;;;;;;;18.30;39.20;;;;;;4963680;28;19965;-88
2021/05/02 15:56:11;;;;;;;;;;;18.30;38.80;;;;;;4966040;28;19933;-88
2021/05/02 15:58:38;;;;;;;;;;;18.30;40.20;;;;;;4964817;28;19927;-91
2021/05/02 16:01:05;;;;;;;;;;;18.20;39.40;;;;;;4965338;28;19949;-86
2021/05/02 16:03:31;;;;;;;;;;;18.20;39.20;;;;;;4960291;28;20196;-87
2021/05/02 16:05:57;;;;;;;;;;;18.20;40.10;;;;;;4951738;28;19926;-87
2021/05/02 16:08:24;;;;;;;;;;;18.20;40.30;;;;;;4946711;28;19923;-84
2021/05/02 16:10:51;;;;;;;;;;;18.20;40.10;;;;;;4960235;23;20220;-85
2021/05/02 16:13:18;;;;;;;;;;;18.30;40.00;;;;;;4972193;28;19926;-86
2021/05/02 16:15:50;;;;;;;;;;;18.40;39.00;;;;;;4950102;28;20029;-84
2021/05/02 16:18:17;;;;;;;;;;;18.40;39.60;;;;;;4968982;28;19930;-86
2021/05/02 16:20:43;;;;;;;;;;;18.50;39.70;;;;;;4972082;28;19926;-89
2021/05/02 16:23:12;;;;;;;;;;;18.60;39.50;;;;;;4953478;28;19929;-89
2021/05/02 16:25:39;;;;;;;;;;;18.50;40.10;;;;;;4986087;23;19910;-84
2021/05/02 16:28:08;;;;;;;;;;;18.50;39.10;;;;;;4929106;28;19926;-84
2021/05/02 16:30:38;;;;;;;;;;;18.60;40.10;;;;;;4913647;28;19922;-83
2021/05/02 16:33:31;;;;;;;;;;;18.60;40.50;;;;;;4893291;28;20445;-86